Lunamar — 5BNV2 — position and weather

sailwx.info

Track history (hours):
 
Tides and Currents Weather Stations Pressure Air Temp Water Temp Dewpoint Dewpoint Depression Visibility Wind Speed Wind Dir Waves Ship Positions

Lunamar

Last reported at 2014-Jul-20 03:06 UTC. Time now 2014-Jul-24 17:48 UTC.
Position N 57°31' E 021°24'.

Length 76 m; draft 3.8 m.

Type: Cargo ship. MMSI: 212762000.

Date/timePositionNaut miles runAvg speedWind from/ knotsBaromVisibWave heightAir tempDewpointWater temp
2014-Jul-20 03:06N 57°31' E 021°24'610.8
2014-Jul-20 02:33N 57°36' E 021°19'1110.8
2014-Jul-20 01:31N 57°47' E 021°10'  
2014-Jul-15 23:30N 57°39' E 017°19'1010.4
2014-Jul-15 22:33N 57°32' E 017°07'1110.5
2014-Jul-15 21:33N 57°24' E 016°54'1010.3
2014-Jul-15 20:33N 57°14' E 016°50'1110.9
2014-Jul-15 19:33N 57°03' E 016°43'  
2014-Jul-11 16:30N 56°06' E 016°07'48 8.9
2014-Jul-11 11:08N 55°21' E 015°34'5 9.2
2014-Jul-11 10:32N 55°16' E 015°30'10 9.3
2014-Jul-11 09:29N 55°08' E 015°22'48 8.9
2014-Jul-11 04:04N 54°24' E 014°47'5 8.5
2014-Jul-11 03:30N 54°20' E 014°43'10 8.5
2014-Jul-11 02:18N 54°12' E 014°32'6 8.5
2014-Jul-11 01:33N 54°07' E 014°26'9 8.6
2014-Jul-11 00:33N 54°00' E 014°16'7 7.1
2014-Jul-10 23:33N 53°53' E 014°16'8 7.9
2014-Jul-10 22:33N 53°46' E 014°23'1110.8
2014-Jul-10 21:33N 53°38' E 014°34'9 9.3
2014-Jul-10 20:33N 53°29' E 014°37'3 2.8
2014-Jul-10 19:31N 53°26' E 014°35'0 0.0
2014-Jul-10 18:31N 53°26' E 014°35'0 0.0
2014-Jul-10 17:31N 53°26' E 014°35'0 0.0
2014-Jul-10 16:31N 53°26' E 014°35'0 0.0
2014-Jul-10 15:31N 53°26' E 014°35'0 0.0
2014-Jul-10 14:31N 53°26' E 014°35'0 0.0
2014-Jul-10 13:31N 53°26' E 014°35'0 0.0
2014-Jul-10 12:31N 53°26' E 014°35'0 0.0
2014-Jul-10 11:31N 53°26' E 014°35'0 0.0
2014-Jul-10 10:31N 53°26' E 014°35'0 0.0
2014-Jul-10 09:31N 53°26' E 014°35'0 0.0
2014-Jul-10 08:28N 53°26' E 014°35'0 0.0
2014-Jul-10 07:31N 53°26' E 014°35'0 0.0
2014-Jul-10 06:31N 53°26' E 014°35'0 0.0
2014-Jul-10 05:31N 53°26' E 014°35'0 0.0
2014-Jul-10 04:31N 53°26' E 014°35'0 0.0
2014-Jul-10 03:31N 53°26' E 014°35'  
Track history (hours):
 
Tides and Currents Weather Stations Pressure Air Temp Water Temp Dewpoint Dewpoint Depression Visibility Wind Speed Wind Dir Waves Ship Positions

Lunamar

Last reported at 2014-Jul-20 03:06 UTC. Time now 2014-Jul-24 17:48 UTC.
Position N 57°31' E 021°24'.

Length 76 m; draft 3.8 m.

Type: Cargo ship. MMSI: 212762000.

Date/timePositionNaut miles runAvg speedWind from/ knotsBaromVisibWave heightAir tempDewpointWater temp
2014-Jul-20 03:06N 57°31' E 021°24'610.8
2014-Jul-20 02:33N 57°36' E 021°19'1110.8
2014-Jul-20 01:31N 57°47' E 021°10'  
2014-Jul-15 23:30N 57°39' E 017°19'1010.4
2014-Jul-15 22:33N 57°32' E 017°07'1110.5
2014-Jul-15 21:33N 57°24' E 016°54'1010.3
2014-Jul-15 20:33N 57°14' E 016°50'1110.9
2014-Jul-15 19:33N 57°03' E 016°43'  
2014-Jul-11 16:30N 56°06' E 016°07'48 8.9
2014-Jul-11 11:08N 55°21' E 015°34'5 9.2
2014-Jul-11 10:32N 55°16' E 015°30'10 9.3
2014-Jul-11 09:29N 55°08' E 015°22'48 8.9
2014-Jul-11 04:04N 54°24' E 014°47'5 8.5
2014-Jul-11 03:30N 54°20' E 014°43'10 8.5
2014-Jul-11 02:18N 54°12' E 014°32'6 8.5
2014-Jul-11 01:33N 54°07' E 014°26'9 8.6
2014-Jul-11 00:33N 54°00' E 014°16'7 7.1
2014-Jul-10 23:33N 53°53' E 014°16'8 7.9
2014-Jul-10 22:33N 53°46' E 014°23'1110.8
2014-Jul-10 21:33N 53°38' E 014°34'9 9.3
2014-Jul-10 20:33N 53°29' E 014°37'3 2.8
2014-Jul-10 19:31N 53°26' E 014°35'0 0.0
2014-Jul-10 18:31N 53°26' E 014°35'0 0.0
2014-Jul-10 17:31N 53°26' E 014°35'0 0.0
2014-Jul-10 16:31N 53°26' E 014°35'0 0.0
2014-Jul-10 15:31N 53°26' E 014°35'0 0.0
2014-Jul-10 14:31N 53°26' E 014°35'0 0.0
2014-Jul-10 13:31N 53°26' E 014°35'0 0.0
2014-Jul-10 12:31N 53°26' E 014°35'0 0.0
2014-Jul-10 11:31N 53°26' E 014°35'0 0.0
2014-Jul-10 10:31N 53°26' E 014°35'0 0.0
2014-Jul-10 09:31N 53°26' E 014°35'0 0.0
2014-Jul-10 08:28N 53°26' E 014°35'0 0.0
2014-Jul-10 07:31N 53°26' E 014°35'0 0.0
2014-Jul-10 06:31N 53°26' E 014°35'0 0.0
2014-Jul-10 05:31N 53°26' E 014°35'0 0.0
2014-Jul-10 04:31N 53°26' E 014°35'0 0.0
2014-Jul-10 03:31N 53°26' E 014°35'  

Dump ship's entire track history